Terminal Aerodrome Forecast
Issued by NWS Atlanta, GA

Home | Current Version | Previous Version | Text Only | Print | Product List | Glossary On
Versions: 1 2 3 4 5 6 7 8 9 10 11 12 13 14 15 16 17 18 19 20 21 22 23 24 25 26 27 28 29 30 31 32 33 34 35
016
FTUS42 KFFC 200529
TAFAHN
TAF
KAHN 200529Z 2006/2106 29003KT P6SM SCT250
     FM200900 03003KT 5SM BR SCT250
     FM201400 08003KT P6SM FEW035 BKN250
     FM201800 13004KT P6SM FEW050 BKN250
     FM210000 00000KT P6SM BKN250=

USA.gov is the U.S. government's official web portal to all federal, state and local government web resources and services.